createdAt,value
2023-03-16T00:01:33.700Z,101990.64
2023-03-16T00:03:46.660Z,101993.17
2023-03-16T00:06:00.069Z,101990.12
2023-03-16T00:08:14.142Z,101989.27
2023-03-16T00:10:28.682Z,101990.60
2023-03-16T00:12:44.627Z,101991.52
2023-03-16T00:14:57.908Z,101995.24
2023-03-16T00:17:10.756Z,101994.23
2023-03-16T00:19:25.256Z,101992.19
2023-03-16T00:21:38.879Z,101987.73
2023-03-16T00:23:51.621Z,101982.27
2023-03-16T00:26:07.627Z,101979.91
2023-03-16T00:28:20.480Z,101978.56
2023-03-16T00:30:33.788Z,101973.35
2023-03-16T00:32:47.218Z,101976.31
2023-03-16T00:35:03.251Z,101975.23
2023-03-16T00:37:17.182Z,101974.09
2023-03-16T00:39:29.968Z,101972.94
2023-03-16T00:41:44.040Z,101975.90
2023-03-16T00:43:56.635Z,101973.35
2023-03-16T00:46:10.102Z,101973.50
2023-03-16T00:48:25.560Z,101976.20
2023-03-16T00:50:37.770Z,101972.48
2023-03-16T00:52:50.937Z,101970.81
2023-03-16T00:55:04.519Z,101970.48
2023-03-16T00:57:20.000Z,101971.34
2023-03-16T00:59:33.669Z,101965.39
2023-03-16T01:01:47.947Z,101966.66
2023-03-16T01:04:00.895Z,101967.88
2023-03-16T01:06:16.177Z,101967.38
2023-03-16T01:08:30.810Z,101969.92
2023-03-16T01:10:46.438Z,101971.44
2023-03-16T01:12:59.159Z,101970.45
2023-03-16T01:15:14.865Z,101973.45
2023-03-16T01:17:27.876Z,101973.99
2023-03-16T01:19:41.056Z,101976.52
2023-03-16T01:21:54.757Z,101976.86
2023-03-16T01:24:09.097Z,101977.23
2023-03-16T01:26:22.124Z,101974.81
2023-03-16T01:28:36.985Z,101977.72
2023-03-16T01:30:51.762Z,101979.15
2023-03-16T01:33:04.794Z,101975.64
2023-03-16T01:35:18.404Z,101979.90
2023-03-16T01:37:32.777Z,101979.33
2023-03-16T01:39:54.250Z,101984.56
2023-03-16T01:42:07.503Z,101985.79
2023-03-16T01:44:23.723Z,101986.94
2023-03-16T01:46:38.066Z,101987.42
2023-03-16T01:49:06.608Z,101987.73
2023-03-16T01:51:24.310Z,101986.55
2023-03-16T01:53:37.895Z,101986.83
2023-03-16T01:55:50.975Z,101985.95
2023-03-16T01:58:03.718Z,101988.38
2023-03-16T02:00:20.522Z,101985.67
2023-03-16T02:03:03.557Z,101986.73
2023-03-16T02:05:29.057Z,101986.96
2023-03-16T02:07:47.687Z,101985.74
2023-03-16T02:10:03.703Z,101993.77
2023-03-16T02:12:19.252Z,101996.60
2023-03-16T02:14:36.195Z,101996.87
2023-03-16T02:16:49.124Z,101995.72
2023-03-16T02:19:03.131Z,101996.62
2023-03-16T02:21:22.977Z,101999.09
2023-03-16T02:23:36.188Z,101995.02
2023-03-16T02:25:53.414Z,101999.08
2023-03-16T02:28:11.867Z,102003.95
2023-03-16T02:30:28.129Z,102002.10
2023-03-16T02:32:46.177Z,102003.31
2023-03-16T02:35:01.793Z,102005.37
2023-03-16T02:37:16.001Z,102008.98
2023-03-16T02:39:29.597Z,102007.39
2023-03-16T02:41:43.336Z,102006.92
2023-03-16T02:44:00.420Z,102005.03
2023-03-16T02:46:17.988Z,102004.27
2023-03-16T02:48:35.158Z,102004.69
2023-03-16T02:50:53.043Z,102006.77
2023-03-16T02:53:06.207Z,102008.79
2023-03-16T02:55:19.579Z,102003.98
2023-03-16T02:57:32.725Z,102008.02
2023-03-16T02:59:50.009Z,102009.19
2023-03-16T03:02:02.774Z,102013.40
2023-03-16T03:04:15.688Z,102020.91
2023-03-16T03:06:28.466Z,102019.19
2023-03-16T03:08:41.608Z,102018.52
2023-03-16T03:10:55.903Z,102016.77
2023-03-16T03:13:09.752Z,102019.44
2023-03-16T03:15:23.012Z,102023.23
2023-03-16T03:17:49.830Z,102026.85
2023-03-16T03:20:03.355Z,102026.00
2023-03-16T03:22:20.069Z,102028.98
2023-03-16T03:24:33.762Z,102029.09
2023-03-16T03:26:47.662Z,102033.84
2023-03-16T03:29:03.537Z,102030.67
2023-03-16T03:31:22.546Z,102036.58
2023-03-16T03:33:36.773Z,102034.17
2023-03-16T03:35:49.318Z,102034.11
2023-03-16T03:38:02.029Z,102031.57
2023-03-16T03:40:17.901Z,102034.61
2023-03-16T03:42:33.478Z,102037.31
2023-03-16T03:44:46.486Z,102039.78
2023-03-16T03:46:59.626Z,102039.91
2023-03-16T03:49:13.189Z,102043.30
2023-03-16T03:51:26.453Z,102043.30
2023-03-16T03:53:49.430Z,102044.36
2023-03-16T03:56:12.444Z,102045.58
2023-03-16T03:58:25.377Z,102046.96
2023-03-16T04:00:38.965Z,102044.86
2023-03-16T04:02:53.257Z,102043.11
2023-03-16T04:05:28.881Z,102046.83
2023-03-16T04:07:41.612Z,102047.19
2023-03-16T04:09:55.794Z,102051.89
2023-03-16T04:12:20.623Z,102051.64
2023-03-16T04:14:34.408Z,102052.30
2023-03-16T04:16:47.802Z,102058.78
2023-03-16T04:19:01.064Z,102058.19
2023-03-16T04:21:17.107Z,102059.99
2023-03-16T04:23:31.376Z,102057.88
2023-03-16T04:25:44.079Z,102062.30
2023-03-16T04:27:57.580Z,102062.52
2023-03-16T04:30:17.660Z,102064.63
2023-03-16T04:32:34.059Z,102062.88
2023-03-16T04:34:48.382Z,102063.23
2023-03-16T04:37:01.574Z,102062.30
2023-03-16T04:39:18.697Z,102058.00
2023-03-16T04:41:31.794Z,102059.14
2023-03-16T04:43:54.398Z,102057.40
2023-03-16T04:46:11.230Z,102055.61
2023-03-16T04:48:21.827Z,102053.73
2023-03-16T04:50:35.040Z,102052.44
2023-03-16T04:52:47.753Z,102050.42
2023-03-16T04:55:00.862Z,102049.55
2023-03-16T04:57:13.827Z,102051.04
2023-03-16T04:59:29.859Z,102046.08
2023-03-16T05:01:59.330Z,102038.86
2023-03-16T05:04:18.919Z,102039.10
2023-03-16T05:06:33.191Z,102036.90
2023-03-16T05:08:47.126Z,102036.98
2023-03-16T05:11:02.516Z,102036.08
2023-03-16T05:13:18.033Z,102038.60
2023-03-16T05:15:31.829Z,102042.10
2023-03-16T05:17:52.463Z,102041.29
2023-03-16T05:20:09.119Z,102037.30
2023-03-16T05:22:22.758Z,102034.02
2023-03-16T05:25:16.397Z,102030.96
2023-03-16T05:27:31.441Z,102033.27
2023-03-16T05:29:47.298Z,102038.16
2023-03-16T05:32:00.634Z,102038.95
2023-03-16T05:34:14.037Z,102038.83
2023-03-16T05:36:27.646Z,102035.11
2023-03-16T05:38:46.721Z,102030.65
2023-03-16T05:41:08.120Z,102031.20
2023-03-16T05:43:38.841Z,102030.27
2023-03-16T05:45:51.651Z,102034.23
2023-03-16T05:48:06.770Z,102032.17
2023-03-16T05:50:21.410Z,102032.17
2023-03-16T05:52:34.927Z,102028.50
2023-03-16T05:54:53.263Z,102031.95
2023-03-16T05:57:07.885Z,102038.19
2023-03-16T05:59:23.035Z,102039.70
2023-03-16T06:01:39.049Z,102037.58
2023-03-16T06:03:53.054Z,102032.70
2023-03-16T06:06:09.517Z,102037.88
2023-03-16T06:08:33.590Z,102040.80
2023-03-16T06:10:53.177Z,102039.14
2023-03-16T06:13:06.525Z,102037.21
2023-03-16T06:15:19.924Z,102034.39
2023-03-16T06:17:33.409Z,102031.45
2023-03-16T06:19:46.970Z,102031.60
2023-03-16T06:22:00.504Z,102036.07
2023-03-16T06:24:14.828Z,102033.30
2023-03-16T06:26:25.393Z,102028.89
2023-03-16T06:28:38.546Z,102027.77
2023-03-16T06:30:51.920Z,102026.93
2023-03-16T06:33:05.128Z,102026.98
2023-03-16T06:35:18.530Z,102027.05
2023-03-16T06:37:41.064Z,102028.92
2023-03-16T06:40:13.516Z,102026.25
2023-03-16T06:42:26.918Z,102026.16
2023-03-16T06:44:41.089Z,102025.77
2023-03-16T06:46:55.793Z,102028.52
2023-03-16T06:49:08.901Z,102032.71
2023-03-16T06:51:22.094Z,102029.63
2023-03-16T06:53:35.738Z,102030.45
2023-03-16T06:55:49.626Z,102035.49
2023-03-16T06:58:03.730Z,102029.84
2023-03-16T07:00:20.172Z,102028.49
2023-03-16T07:02:36.830Z,102027.75
2023-03-16T07:05:06.715Z,102031.09
2023-03-16T07:07:20.429Z,102029.93
2023-03-16T07:09:34.346Z,102029.67
2023-03-16T07:11:48.019Z,102026.92
2023-03-16T07:14:01.048Z,102025.57
2023-03-16T07:16:15.221Z,102023.09
2023-03-16T07:18:28.939Z,102024.36
2023-03-16T07:20:43.189Z,102021.81
2023-03-16T07:22:56.534Z,102022.52
2023-03-16T07:25:10.775Z,102018.89
2023-03-16T07:27:27.259Z,102019.30
2023-03-16T07:29:41.031Z,102021.85
2023-03-16T07:31:55.088Z,102018.88
2023-03-16T07:34:12.770Z,102017.91
2023-03-16T07:36:32.843Z,102014.45
2023-03-16T07:38:46.897Z,102015.27
2023-03-16T07:41:00.425Z,102015.27
2023-03-16T07:43:14.257Z,102012.03
2023-03-16T07:45:34.936Z,102011.82
2023-03-16T07:47:49.063Z,102009.23
2023-03-16T07:50:14.414Z,102009.88
2023-03-16T07:52:28.312Z,102009.41
2023-03-16T07:54:42.312Z,102006.39
2023-03-16T07:56:55.591Z,102002.66
2023-03-16T07:59:29.789Z,102001.39
2023-03-16T08:01:42.870Z,102001.79
2023-03-16T08:03:56.456Z,102000.71
2023-03-16T08:06:09.665Z,102001.35
2023-03-16T08:08:23.478Z,101995.76
2023-03-16T08:10:36.965Z,102000.10
2023-03-16T08:12:56.209Z,101998.41
2023-03-16T08:15:11.963Z,101995.05
2023-03-16T08:17:25.471Z,101997.19
2023-03-16T08:19:39.827Z,101998.03
2023-03-16T08:22:01.057Z,101991.83
2023-03-16T08:24:18.664Z,101989.25
2023-03-16T08:26:31.960Z,101989.38
2023-03-16T08:28:46.981Z,101991.14
2023-03-16T08:31:00.854Z,101993.31
2023-03-16T08:33:33.586Z,101992.48
2023-03-16T08:35:47.517Z,101987.46
2023-03-16T08:38:02.019Z,101986.24
2023-03-16T08:40:19.859Z,101989.17
2023-03-16T08:42:33.684Z,101990.65
2023-03-16T08:44:48.846Z,101989.32
2023-03-16T08:47:01.353Z,101995.23
2023-03-16T08:49:15.159Z,101997.23
2023-03-16T08:51:30.440Z,101999.91
2023-03-16T08:53:43.213Z,101999.65
2023-03-16T08:55:56.273Z,101996.51
2023-03-16T08:58:10.217Z,101994.83
2023-03-16T09:00:24.527Z,101994.58
2023-03-16T09:02:39.657Z,101996.71
2023-03-16T09:04:53.897Z,101994.49
2023-03-16T09:07:09.208Z,101992.25
2023-03-16T09:09:22.857Z,101994.16
2023-03-16T09:11:36.193Z,101993.90
2023-03-16T09:13:51.240Z,101997.34
2023-03-16T09:16:06.822Z,101998.52
2023-03-16T09:18:20.262Z,101995.35
2023-03-16T09:20:33.434Z,101994.06
2023-03-16T09:22:46.796Z,101994.89
2023-03-16T09:25:00.269Z,101996.85
2023-03-16T09:27:14.099Z,102000.91
2023-03-16T09:29:29.035Z,101997.18
2023-03-16T09:31:42.222Z,101997.15
2023-03-16T09:33:56.158Z,101997.19
2023-03-16T09:36:12.633Z,101990.33
2023-03-16T09:38:27.737Z,101986.83
2023-03-16T09:40:42.520Z,101987.27
2023-03-16T09:43:04.814Z,101984.98
2023-03-16T09:45:27.572Z,101983.17
2023-03-16T09:47:41.888Z,101984.68
2023-03-16T09:49:57.015Z,101982.98
2023-03-16T09:52:16.448Z,101981.84
2023-03-16T09:54:40.232Z,101979.30
2023-03-16T09:56:55.738Z,101978.65
2023-03-16T09:59:14.441Z,101976.13
2023-03-16T10:01:39.927Z,101976.72
2023-03-16T10:04:11.629Z,101971.36
2023-03-16T10:06:25.839Z,101968.30
2023-03-16T10:08:43.617Z,101972.52
2023-03-16T10:11:08.742Z,101966.42
2023-03-16T10:13:30.950Z,101966.53
2023-03-16T10:15:42.306Z,101965.29
2023-03-16T10:18:00.126Z,101961.44
2023-03-16T10:20:18.607Z,101956.11
2023-03-16T10:22:35.853Z,101951.14
2023-03-16T10:24:55.597Z,101953.29
2023-03-16T10:27:10.769Z,101949.67
2023-03-16T10:29:23.616Z,101944.49
2023-03-16T10:31:42.314Z,101940.38
2023-03-16T10:33:59.532Z,101937.20
2023-03-16T10:36:27.158Z,101938.92
2023-03-16T10:38:44.321Z,101936.27
2023-03-16T10:40:58.830Z,101936.49
2023-03-16T10:43:18.411Z,101932.16
2023-03-16T10:45:37.648Z,101927.36
2023-03-16T10:47:51.215Z,101926.86
2023-03-16T10:50:13.681Z,101924.34
2023-03-16T10:52:35.637Z,101918.48
2023-03-16T10:54:55.543Z,101919.69
2023-03-16T10:57:24.442Z,101916.80
2023-03-16T10:59:39.460Z,101916.94
2023-03-16T11:01:53.732Z,101911.31
2023-03-16T11:04:16.632Z,101908.17
2023-03-16T11:06:32.356Z,101909.36
2023-03-16T11:08:46.471Z,101903.42
2023-03-16T11:11:04.018Z,101906.76
2023-03-16T11:13:19.942Z,101904.05
2023-03-16T11:15:39.378Z,101905.20
2023-03-16T11:17:56.368Z,101899.52
2023-03-16T11:20:15.917Z,101897.66
2023-03-16T11:22:31.189Z,101899.79
2023-03-16T11:24:52.510Z,101895.83
2023-03-16T11:27:13.704Z,101893.78
2023-03-16T11:29:31.907Z,101894.91
2023-03-16T11:31:54.580Z,101887.89
2023-03-16T11:34:12.241Z,101891.60
2023-03-16T11:36:47.509Z,101886.27
2023-03-16T11:39:11.332Z,101885.13
2023-03-16T11:41:31.871Z,101884.14
2023-03-16T11:43:58.665Z,101881.48
2023-03-16T11:46:18.587Z,101879.13
2023-03-16T11:48:40.241Z,101879.00
2023-03-16T11:51:05.537Z,101881.91
2023-03-16T11:53:28.327Z,101885.89
2023-03-16T11:55:47.898Z,101883.05
2023-03-16T11:58:15.041Z,101880.55
2023-03-16T12:00:37.159Z,101883.67
2023-03-16T12:03:05.939Z,101881.88
2023-03-16T12:05:56.658Z,101880.38
2023-03-16T12:08:22.000Z,101879.45
2023-03-16T12:10:40.198Z,101877.33
2023-03-16T12:13:11.755Z,101877.11
2023-03-16T12:15:37.096Z,101877.88
2023-03-16T12:17:53.546Z,101882.10
2023-03-16T12:20:11.789Z,101883.13
2023-03-16T12:22:31.338Z,101881.77
2023-03-16T12:24:50.046Z,101878.25
2023-03-16T12:27:04.588Z,101876.30
2023-03-16T12:29:27.547Z,101875.05
2023-03-16T12:31:49.496Z,101876.11
2023-03-16T12:34:12.823Z,101875.57
2023-03-16T12:37:02.138Z,101880.38
2023-03-16T12:39:21.732Z,101873.21
2023-03-16T12:41:44.661Z,101871.27
2023-03-16T12:44:18.826Z,101874.67
2023-03-16T12:46:40.743Z,101872.39
2023-03-16T12:48:57.333Z,101871.58
2023-03-16T12:51:11.256Z,101871.20
2023-03-16T12:53:43.287Z,101868.55
2023-03-16T12:55:57.795Z,101869.90
2023-03-16T12:58:13.625Z,101864.42
2023-03-16T13:00:38.854Z,101859.42
2023-03-16T13:02:58.916Z,101864.54
2023-03-16T13:05:18.264Z,101865.13
2023-03-16T13:07:34.473Z,101864.55
2023-03-16T13:09:54.466Z,101869.23
2023-03-16T13:12:08.418Z,101867.40
2023-03-16T13:14:39.458Z,101869.40
2023-03-16T13:16:54.918Z,101870.33
2023-03-16T13:19:27.176Z,101867.40
2023-03-16T13:21:44.640Z,101865.63
2023-03-16T13:24:16.745Z,101864.23
2023-03-16T13:26:45.066Z,101862.12
2023-03-16T13:28:58.849Z,101865.08
2023-03-16T13:31:23.495Z,101865.22
2023-03-16T13:33:41.936Z,101864.88
2023-03-16T13:35:56.289Z,101865.16
2023-03-16T13:38:21.143Z,101859.65
2023-03-16T13:40:33.807Z,101862.23
2023-03-16T13:42:49.758Z,101859.68
2023-03-16T13:45:10.902Z,101860.80
2023-03-16T13:47:25.796Z,101860.48
2023-03-16T13:49:50.050Z,101856.23
2023-03-16T13:52:06.533Z,101854.40
2023-03-16T13:54:27.468Z,101856.83
2023-03-16T13:56:41.474Z,101853.70
2023-03-16T13:58:56.168Z,101853.52
2023-03-16T14:01:19.105Z,101851.88
2023-03-16T14:03:38.064Z,101847.30
2023-03-16T14:05:51.514Z,101852.35
2023-03-16T14:08:06.007Z,101846.73
2023-03-16T14:10:21.925Z,101843.76
2023-03-16T14:12:34.371Z,101846.73
2023-03-16T14:14:51.315Z,101845.41
2023-03-16T14:17:13.951Z,101848.80
2023-03-16T14:19:36.898Z,101847.88
2023-03-16T14:21:50.836Z,101847.50
2023-03-16T14:24:07.371Z,101845.83
2023-03-16T14:26:25.998Z,101847.60
2023-03-16T14:28:40.064Z,101846.48
2023-03-16T14:31:07.507Z,101846.38
2023-03-16T14:33:32.912Z,101844.82
2023-03-16T14:35:49.520Z,101848.33
2023-03-16T14:38:21.861Z,101841.86
2023-03-16T14:40:39.321Z,101847.54
2023-03-16T14:42:53.859Z,101847.27
2023-03-16T14:45:09.883Z,101851.38
2023-03-16T14:47:29.144Z,101848.41
2023-03-16T14:49:43.594Z,101850.72
2023-03-16T14:51:58.657Z,101846.84
2023-03-16T14:54:18.977Z,101850.40
2023-03-16T14:56:38.609Z,101851.31
2023-03-16T14:58:51.663Z,101848.79
2023-03-16T15:01:06.064Z,101842.43
2023-03-16T15:03:21.597Z,101842.17
2023-03-16T15:05:39.403Z,101842.27
2023-03-16T15:07:54.915Z,101840.66
2023-03-16T15:10:23.840Z,101837.54
2023-03-16T15:12:38.970Z,101837.50
2023-03-16T15:15:09.235Z,101832.98
2023-03-16T15:17:22.209Z,101842.75
2023-03-16T15:19:35.159Z,101847.48
2023-03-16T15:21:49.850Z,101845.34
2023-03-16T15:24:02.990Z,101842.04
2023-03-16T15:26:17.745Z,101846.95
2023-03-16T15:28:31.839Z,101842.25
2023-03-16T15:30:44.934Z,101841.47
2023-03-16T15:32:57.714Z,101839.84
2023-03-16T15:35:12.340Z,101836.88
2023-03-16T15:37:28.550Z,101835.73
2023-03-16T15:39:41.314Z,101838.54
2023-03-16T15:41:54.340Z,101839.24
2023-03-16T15:44:09.560Z,101840.68
2023-03-16T15:46:22.372Z,101840.38
2023-03-16T15:48:35.475Z,101841.30
2023-03-16T15:50:53.812Z,101839.05
2023-03-16T15:53:20.444Z,101835.85
2023-03-16T15:55:44.863Z,101832.41
2023-03-16T15:58:01.873Z,101833.23
2023-03-16T16:00:31.421Z,101829.09
2023-03-16T16:02:43.954Z,101832.86
2023-03-16T16:04:57.432Z,101831.34
2023-03-16T16:07:14.761Z,101836.55
2023-03-16T16:09:27.854Z,101836.95
2023-03-16T16:11:41.346Z,101836.94
2023-03-16T16:13:56.246Z,101837.92
2023-03-16T16:16:09.793Z,101842.23
2023-03-16T16:18:33.114Z,101840.97
2023-03-16T16:20:45.610Z,101839.06
2023-03-16T16:23:01.030Z,101836.33
2023-03-16T16:25:16.291Z,101834.70
2023-03-16T16:27:29.326Z,101835.71
2023-03-16T16:29:42.410Z,101831.58
2023-03-16T16:31:56.337Z,101832.09
2023-03-16T16:34:14.100Z,101826.95
2023-03-16T16:36:27.304Z,101828.04
2023-03-16T16:38:40.244Z,101824.48
2023-03-16T16:40:54.434Z,101826.41
2023-03-16T16:43:10.577Z,101825.21
2023-03-16T16:45:26.412Z,101821.30
2023-03-16T16:47:40.518Z,101820.30
2023-03-16T16:49:53.788Z,101819.41
2023-03-16T16:52:07.546Z,101819.13
2023-03-16T16:54:24.912Z,101810.96
2023-03-16T16:56:39.713Z,101813.27
2023-03-16T16:58:52.709Z,101817.02
2023-03-16T17:01:05.700Z,101814.18
2023-03-16T17:03:27.087Z,101815.98
2023-03-16T17:05:40.421Z,101814.31
2023-03-16T17:07:54.647Z,101816.94
2023-03-16T17:10:08.294Z,101812.84
2023-03-16T17:12:26.108Z,101814.52
2023-03-16T17:14:39.142Z,101814.44
2023-03-16T17:16:52.856Z,101815.45
2023-03-16T17:19:08.189Z,101812.29
2023-03-16T17:21:24.621Z,101813.91
2023-03-16T17:23:38.730Z,101806.23
2023-03-16T17:25:51.605Z,101806.13
2023-03-16T17:28:08.219Z,101805.29
2023-03-16T17:30:33.224Z,101798.92
2023-03-16T17:32:46.321Z,101794.69
2023-03-16T17:34:59.497Z,101794.15
2023-03-16T17:37:16.045Z,101794.73
2023-03-16T17:39:31.289Z,101788.88
2023-03-16T17:41:44.514Z,101789.85
2023-03-16T17:43:58.154Z,101791.13
2023-03-16T17:46:14.992Z,101787.34
2023-03-16T17:48:30.359Z,101797.38
2023-03-16T17:50:43.804Z,101793.52
2023-03-16T17:52:57.215Z,101788.45
2023-03-16T17:55:12.007Z,101787.95
2023-03-16T17:57:28.614Z,101787.14
2023-03-16T17:59:42.078Z,101783.93
2023-03-16T18:01:55.181Z,101779.61
2023-03-16T18:04:10.714Z,101782.70
2023-03-16T18:06:26.720Z,101776.64
2023-03-16T18:08:39.810Z,101775.27
2023-03-16T18:10:55.983Z,101775.18
2023-03-16T18:13:16.964Z,101772.68
2023-03-16T18:15:34.675Z,101774.84
2023-03-16T18:17:48.219Z,101774.16
2023-03-16T18:20:01.629Z,101767.84
2023-03-16T18:22:22.333Z,101771.38
2023-03-16T18:24:35.738Z,101760.99
2023-03-16T18:26:48.955Z,101761.52
2023-03-16T18:29:01.975Z,101756.74
2023-03-16T18:31:24.765Z,101761.93
2023-03-16T18:33:39.249Z,101756.24
2023-03-16T18:35:52.805Z,101754.86
2023-03-16T18:38:05.710Z,101750.24
2023-03-16T18:40:22.034Z,101743.85
2023-03-16T18:42:35.244Z,101746.40
2023-03-16T18:44:48.314Z,101742.15
2023-03-16T18:47:05.990Z,101740.38
2023-03-16T18:49:24.104Z,101735.25
2023-03-16T18:51:37.617Z,101740.44
2023-03-16T18:53:51.420Z,101737.70
2023-03-16T18:56:04.280Z,101739.30
2023-03-16T18:58:19.818Z,101735.66
2023-03-16T19:00:33.130Z,101737.59
2023-03-16T19:02:48.258Z,101729.08
2023-03-16T19:05:03.042Z,101731.12
2023-03-16T19:07:27.565Z,101728.80
2023-03-16T19:09:40.825Z,101732.23
2023-03-16T19:11:54.511Z,101727.73
2023-03-16T19:14:14.667Z,101730.27
2023-03-16T19:16:28.214Z,101719.98
2023-03-16T19:18:45.842Z,101722.52
2023-03-16T19:21:00.165Z,101725.41
2023-03-16T19:23:19.450Z,101715.42
2023-03-16T19:25:36.119Z,101713.15
2023-03-16T19:27:49.358Z,101709.91
2023-03-16T19:30:04.447Z,101701.63
2023-03-16T19:32:22.528Z,101701.97
2023-03-16T19:34:35.584Z,101701.73
2023-03-16T19:36:48.819Z,101705.10
2023-03-16T19:39:02.465Z,101692.30
2023-03-16T19:41:27.964Z,101688.02
2023-03-16T19:43:41.233Z,101693.30
2023-03-16T19:45:55.785Z,101692.55
2023-03-16T19:48:13.820Z,101689.05
2023-03-16T19:50:28.548Z,101691.70
2023-03-16T19:52:40.988Z,101684.90
2023-03-16T19:54:53.684Z,101687.38
2023-03-16T19:57:13.417Z,101682.70
2023-03-16T19:59:27.744Z,101676.67
2023-03-16T20:01:40.675Z,101682.45
2023-03-16T20:03:55.806Z,101676.11
2023-03-16T20:06:09.703Z,101673.95
2023-03-16T20:08:27.873Z,101673.17
2023-03-16T20:10:40.524Z,101668.05
2023-03-16T20:12:55.884Z,101670.96
2023-03-16T20:15:09.307Z,101667.96
2023-03-16T20:17:27.449Z,101668.19
2023-03-16T20:19:40.474Z,101660.66
2023-03-16T20:21:53.654Z,101664.68
2023-03-16T20:24:06.996Z,101662.61
2023-03-16T20:26:25.556Z,101665.77
2023-03-16T20:28:41.206Z,101663.41
2023-03-16T20:30:55.207Z,101659.70
2023-03-16T20:33:08.178Z,101654.79
2023-03-16T20:35:30.465Z,101649.69
2023-03-16T20:37:44.270Z,101649.73
2023-03-16T20:39:58.478Z,101648.45
2023-03-16T20:42:14.565Z,101642.70
2023-03-16T20:44:30.543Z,101639.36
2023-03-16T20:46:45.753Z,101638.48
2023-03-16T20:48:58.875Z,101639.15
2023-03-16T20:51:15.409Z,101638.83
2023-03-16T20:53:28.822Z,101628.32
2023-03-16T20:55:42.069Z,101625.00
2023-03-16T20:57:58.522Z,101621.70
2023-03-16T21:00:21.158Z,101616.30
2023-03-16T21:02:36.807Z,101619.80
2023-03-16T21:04:49.822Z,101612.70
2023-03-16T21:07:02.588Z,101607.48
2023-03-16T21:09:15.724Z,101603.70
2023-03-16T21:11:33.087Z,101605.50
2023-03-16T21:13:45.932Z,101597.70
2023-03-16T21:15:58.473Z,101595.39
2023-03-16T21:18:17.019Z,101594.84
2023-03-16T21:20:32.015Z,101588.91
2023-03-16T21:22:45.415Z,101590.77
2023-03-16T21:24:58.833Z,101581.05
2023-03-16T21:27:15.605Z,101575.24
2023-03-16T21:29:28.446Z,101582.27
2023-03-16T21:31:42.408Z,101578.88
2023-03-16T21:33:56.738Z,101574.70
2023-03-16T21:36:16.381Z,101572.14
2023-03-16T21:38:30.319Z,101575.66
2023-03-16T21:40:43.161Z,101571.08
2023-03-16T21:42:55.895Z,101565.53
2023-03-16T21:45:09.461Z,101560.61
2023-03-16T21:47:28.973Z,101560.00
2023-03-16T21:49:42.498Z,101556.48
2023-03-16T21:51:57.209Z,101557.34
2023-03-16T21:54:15.291Z,101547.19
2023-03-16T21:56:30.125Z,101550.47
2023-03-16T21:58:42.697Z,101543.50
2023-03-16T22:00:58.061Z,101546.52
2023-03-16T22:03:47.978Z,101544.91
2023-03-16T22:06:04.379Z,101538.52
2023-03-16T22:08:21.579Z,101531.48
2023-03-16T22:10:34.762Z,101532.31
2023-03-16T22:12:47.363Z,101528.59
2023-03-16T22:15:00.559Z,101524.95
2023-03-16T22:17:19.356Z,101524.07
2023-03-16T22:19:32.406Z,101526.81
2023-03-16T22:21:47.670Z,101525.39
2023-03-16T22:24:02.879Z,101520.73
2023-03-16T22:26:26.430Z,101520.06
2023-03-16T22:28:39.286Z,101521.30
2023-03-16T22:30:53.028Z,101517.11
2023-03-16T22:33:06.416Z,101515.85
2023-03-16T22:35:32.505Z,101518.13
2023-03-16T22:37:45.172Z,101515.23
2023-03-16T22:39:59.541Z,101507.95
2023-03-16T22:42:28.416Z,101514.23
2023-03-16T22:44:41.222Z,101507.40
2023-03-16T22:46:55.058Z,101508.61
2023-03-16T22:49:21.199Z,101501.86
2023-03-16T22:51:37.825Z,101503.84
2023-03-16T22:53:51.851Z,101502.42
2023-03-16T22:56:05.376Z,101498.30
2023-03-16T22:58:26.328Z,101494.63
2023-03-16T23:00:39.242Z,101497.24
2023-03-16T23:02:52.681Z,101500.42
2023-03-16T23:05:05.473Z,101499.15
2023-03-16T23:07:20.782Z,101494.35
2023-03-16T23:09:33.957Z,101494.92
2023-03-16T23:11:47.493Z,101500.21
2023-03-16T23:14:00.768Z,101508.96
2023-03-16T23:16:24.290Z,101497.43
2023-03-16T23:18:37.626Z,101496.85
2023-03-16T23:20:52.029Z,101492.17
2023-03-16T23:23:05.194Z,101490.77
2023-03-16T23:25:18.306Z,101487.60
2023-03-16T23:27:31.059Z,101494.09
2023-03-16T23:29:44.333Z,101491.58
2023-03-16T23:31:57.664Z,101484.63
2023-03-16T23:34:16.001Z,101479.27
2023-03-16T23:36:29.178Z,101484.52
2023-03-16T23:38:42.216Z,101480.99
2023-03-16T23:40:55.058Z,101483.20
2023-03-16T23:43:08.853Z,101480.30
2023-03-16T23:45:36.871Z,101474.06
2023-03-16T23:47:50.561Z,101477.55
2023-03-16T23:50:03.417Z,101469.12
2023-03-16T23:52:16.392Z,101465.75
2023-03-16T23:54:31.679Z,101466.52
2023-03-16T23:56:44.103Z,101462.04
2023-03-16T23:58:57.061Z,101460.73
